createdAt,value
2022-07-28T00:02:20.935Z,79.60
2022-07-28T00:04:47.942Z,79.40
2022-07-28T00:07:14.564Z,80.20
2022-07-28T00:12:08.550Z,78.50
2022-07-28T00:14:35.189Z,78.00
2022-07-28T00:17:02.335Z,78.50
2022-07-28T00:19:28.997Z,79.80
2022-07-28T00:21:55.741Z,78.50
2022-07-28T00:24:24.117Z,80.40
2022-07-28T00:26:50.828Z,78.50
2022-07-28T00:29:17.938Z,79.30
2022-07-28T00:31:44.614Z,78.60
2022-07-28T00:34:12.365Z,79.10
2022-07-28T00:36:39.311Z,78.70
2022-07-28T00:39:05.941Z,79.40
2022-07-28T00:41:33.017Z,78.50
2022-07-28T00:43:59.617Z,79.40
2022-07-28T00:46:27.126Z,79.80
2022-07-28T00:48:54.892Z,79.70
2022-07-28T00:51:24.034Z,79.90
2022-07-28T00:53:51.182Z,80.10
2022-07-28T00:56:18.347Z,80.50
2022-07-28T00:58:47.204Z,80.00
2022-07-28T01:01:17.572Z,80.20
2022-07-28T01:03:47.303Z,80.60
2022-07-28T01:06:41.833Z,81.90
2022-07-28T01:09:25.381Z,80.80
2022-07-28T01:12:08.506Z,80.00
2022-07-28T01:14:58.198Z,80.20
2022-07-28T01:17:47.997Z,81.10
2022-07-28T01:20:24.391Z,80.50
2022-07-28T01:23:12.540Z,80.20
2022-07-28T01:25:54.170Z,80.20
2022-07-28T01:28:28.972Z,81.50
2022-07-28T01:30:58.655Z,81.60
2022-07-28T01:33:33.708Z,82.10
2022-07-28T01:36:08.697Z,81.10
2022-07-28T01:38:36.975Z,80.60
2022-07-28T01:41:05.278Z,81.40
2022-07-28T01:43:36.148Z,81.90
2022-07-28T01:46:03.795Z,80.40
2022-07-28T01:48:32.343Z,81.60
2022-07-28T01:51:00.657Z,81.30
2022-07-28T01:53:30.103Z,81.90
2022-07-28T01:55:59.555Z,82.10
2022-07-28T01:58:28.086Z,83.40
2022-07-28T02:00:56.345Z,82.60
2022-07-28T02:03:25.292Z,82.40
2022-07-28T02:05:55.065Z,83.80
2022-07-28T02:08:24.607Z,84.30
2022-07-28T02:11:13.188Z,82.80
2022-07-28T02:13:41.950Z,82.20
2022-07-28T02:16:11.322Z,83.10
2022-07-28T02:18:39.188Z,83.00
2022-07-28T02:21:07.483Z,83.50
2022-07-28T02:23:35.668Z,82.90
2022-07-28T02:26:07.502Z,82.50
2022-07-28T02:28:34.725Z,82.70
2022-07-28T02:31:20.007Z,82.00
2022-07-28T02:34:00.409Z,83.10
2022-07-28T02:36:33.928Z,82.80
2022-07-28T02:39:12.011Z,82.40
2022-07-28T02:41:41.517Z,83.20
2022-07-28T02:44:17.478Z,83.40
2022-07-28T02:46:52.053Z,83.20
2022-07-28T02:49:23.465Z,82.70
2022-07-28T02:51:52.611Z,83.30
2022-07-28T02:54:20.762Z,84.20
2022-07-28T02:56:53.827Z,83.40
2022-07-28T02:59:22.155Z,83.30
2022-07-28T03:01:50.729Z,83.80
2022-07-28T03:04:38.447Z,83.00
2022-07-28T03:07:05.801Z,83.70
2022-07-28T03:09:43.950Z,83.70
2022-07-28T03:14:38.420Z,83.80
2022-07-28T03:17:05.886Z,83.60
2022-07-28T03:19:32.724Z,83.70
2022-07-28T03:21:59.798Z,83.60
2022-07-28T03:24:29.407Z,83.70
2022-07-28T03:27:02.292Z,85.30
2022-07-28T03:29:31.220Z,85.70
2022-07-28T03:31:59.511Z,85.90
2022-07-28T03:34:26.953Z,83.40
2022-07-28T03:37:07.312Z,83.10
2022-07-28T03:39:40.674Z,83.60
2022-07-28T03:42:09.037Z,83.60
2022-07-28T03:44:38.246Z,84.10
2022-07-28T03:47:05.385Z,85.00
2022-07-28T03:49:32.124Z,84.80
2022-07-28T03:51:58.818Z,84.80
2022-07-28T03:54:25.411Z,85.50
2022-07-28T03:56:52.076Z,85.20
2022-07-28T04:01:47.292Z,85.70
2022-07-28T04:04:14.169Z,86.20
2022-07-28T04:06:41.051Z,86.70
2022-07-28T04:09:07.790Z,86.20
2022-07-28T04:11:34.382Z,86.20
2022-07-28T04:14:00.974Z,86.30
2022-07-28T04:16:27.638Z,87.30
2022-07-28T04:18:54.304Z,85.60
2022-07-28T04:21:22.853Z,86.20
2022-07-28T04:23:49.681Z,86.00
2022-07-28T04:26:17.539Z,86.50
2022-07-28T04:28:45.578Z,85.20
2022-07-28T04:31:12.613Z,85.40
2022-07-28T04:33:39.982Z,85.40
2022-07-28T04:36:07.081Z,86.10
2022-07-28T04:38:34.476Z,85.80
2022-07-28T04:41:01.069Z,86.10
2022-07-28T04:43:27.768Z,86.20
2022-07-28T04:45:54.719Z,86.50
2022-07-28T04:48:22.912Z,87.10
2022-07-28T04:50:51.102Z,86.20
2022-07-28T04:55:46.116Z,86.00
2022-07-28T04:58:13.380Z,86.70
2022-07-28T05:00:40.042Z,87.30
2022-07-28T05:03:06.656Z,86.20
2022-07-28T05:05:33.320Z,87.10
2022-07-28T05:07:59.907Z,87.30
2022-07-28T05:10:26.598Z,87.30
2022-07-28T05:12:54.419Z,88.40
2022-07-28T05:15:21.141Z,86.40
2022-07-28T05:17:49.469Z,86.10
2022-07-28T05:20:17.301Z,86.60
2022-07-28T05:22:50.861Z,86.20
2022-07-28T05:25:19.151Z,84.70
2022-07-28T05:27:46.793Z,85.90
2022-07-28T05:30:14.278Z,85.20
2022-07-28T05:32:41.144Z,85.40
2022-07-28T05:35:08.416Z,85.60
2022-07-28T05:37:35.702Z,85.50
2022-07-28T05:40:04.686Z,85.40
2022-07-28T05:42:35.759Z,84.80
2022-07-28T05:45:05.460Z,84.40
2022-07-28T05:47:49.350Z,85.40
2022-07-28T05:50:17.585Z,85.30
2022-07-28T05:52:45.000Z,84.70
2022-07-28T05:55:12.110Z,82.40
2022-07-28T05:57:39.815Z,82.90
2022-07-28T06:00:09.165Z,82.90
2022-07-28T06:02:36.034Z,84.10
2022-07-28T06:05:02.820Z,83.30
2022-07-28T06:07:43.358Z,82.80
2022-07-28T06:10:13.533Z,83.40
2022-07-28T06:12:44.322Z,82.30
2022-07-28T06:15:15.692Z,83.10
2022-07-28T06:17:43.109Z,83.60
2022-07-28T06:20:11.666Z,82.00
2022-07-28T06:22:49.646Z,82.10
2022-07-28T06:25:21.842Z,82.70
2022-07-28T06:27:50.536Z,83.50
2022-07-28T06:30:18.210Z,81.40
2022-07-28T06:32:45.835Z,80.70
2022-07-28T06:35:16.232Z,82.60
2022-07-28T06:37:47.434Z,82.10
2022-07-28T06:40:15.404Z,81.50
2022-07-28T06:42:43.075Z,79.90
2022-07-28T06:45:21.010Z,82.60
2022-07-28T06:47:52.731Z,79.90
2022-07-28T06:50:24.874Z,79.10
2022-07-28T06:52:57.363Z,80.60
2022-07-28T06:55:26.122Z,80.40
2022-07-28T06:58:01.578Z,81.60
2022-07-28T07:00:28.285Z,78.70
2022-07-28T07:02:54.888Z,79.00
2022-07-28T07:05:21.489Z,78.80
2022-07-28T07:07:48.145Z,78.40
2022-07-28T07:10:14.765Z,78.90
2022-07-28T07:12:41.345Z,77.70
2022-07-28T07:15:11.538Z,80.00
2022-07-28T07:17:38.133Z,77.70
2022-07-28T07:20:06.636Z,77.60
2022-07-28T07:22:33.530Z,76.50
2022-07-28T07:25:11.187Z,77.10
2022-07-28T07:27:38.889Z,78.10
2022-07-28T07:30:07.018Z,79.60
2022-07-28T07:32:34.074Z,76.90
2022-07-28T07:35:00.698Z,77.90
2022-07-28T07:37:27.528Z,76.00
2022-07-28T07:39:54.277Z,76.90
2022-07-28T07:42:20.882Z,76.60
2022-07-28T07:44:51.488Z,75.40
2022-07-28T07:47:18.341Z,74.70
2022-07-28T07:49:46.223Z,76.80
2022-07-28T07:52:14.086Z,74.70
2022-07-28T07:54:43.708Z,75.80
2022-07-28T07:57:10.903Z,75.10
2022-07-28T07:59:37.953Z,75.30
2022-07-28T08:02:04.934Z,74.70
2022-07-28T08:04:31.653Z,75.40
2022-07-28T08:07:04.418Z,74.80
2022-07-28T08:09:32.469Z,75.40
2022-07-28T08:11:59.108Z,73.50
2022-07-28T08:14:25.788Z,73.40
2022-07-28T08:16:52.579Z,72.10
2022-07-28T08:19:21.605Z,71.30
2022-07-28T08:21:48.584Z,70.80
2022-07-28T08:24:17.721Z,71.00
2022-07-28T08:26:59.129Z,70.40
2022-07-28T08:29:25.892Z,70.10
2022-07-28T08:31:52.610Z,70.00
2022-07-28T08:34:31.117Z,69.60
2022-07-28T08:37:02.629Z,69.50
2022-07-28T08:39:30.260Z,69.50
2022-07-28T08:42:04.790Z,69.20
2022-07-28T08:44:50.056Z,69.10
2022-07-28T08:47:17.519Z,68.90
2022-07-28T08:49:44.481Z,68.90
2022-07-28T08:52:12.893Z,68.90
2022-07-28T08:54:46.044Z,68.80
2022-07-28T08:57:20.854Z,68.60
2022-07-28T08:59:49.914Z,69.10
2022-07-28T09:02:17.116Z,68.70
2022-07-28T09:04:46.102Z,68.60
2022-07-28T09:07:13.177Z,68.90
2022-07-28T09:09:40.286Z,68.20
2022-07-28T09:12:07.289Z,68.40
2022-07-28T09:14:34.824Z,68.00
2022-07-28T09:17:02.357Z,68.10
2022-07-28T09:19:34.076Z,67.90
2022-07-28T09:22:02.327Z,67.70
2022-07-28T09:24:37.439Z,67.60
2022-07-28T09:27:09.400Z,67.60
2022-07-28T09:29:40.733Z,67.10
2022-07-28T09:32:08.600Z,67.20
2022-07-28T09:34:42.659Z,67.30
2022-07-28T09:37:28.018Z,66.90
2022-07-28T09:39:59.666Z,67.00
2022-07-28T09:42:44.338Z,66.90
2022-07-28T09:45:25.776Z,66.70
2022-07-28T09:48:12.807Z,66.50
2022-07-28T09:50:43.544Z,65.20
2022-07-28T09:53:22.332Z,65.50
2022-07-28T09:56:00.633Z,65.60
2022-07-28T09:58:29.533Z,65.70
2022-07-28T10:01:13.561Z,66.00
2022-07-28T10:03:42.696Z,65.40
2022-07-28T10:06:16.618Z,65.50
2022-07-28T10:08:45.396Z,65.70
2022-07-28T10:11:13.864Z,65.10
2022-07-28T10:14:04.004Z,65.30
2022-07-28T10:16:43.432Z,65.10
2022-07-28T10:19:10.138Z,65.10
2022-07-28T10:21:45.519Z,65.10
2022-07-28T10:24:22.152Z,64.40
2022-07-28T10:26:50.487Z,64.60
2022-07-28T10:29:20.729Z,64.60
2022-07-28T10:32:07.655Z,62.50
2022-07-28T10:34:38.983Z,61.60
2022-07-28T10:37:09.911Z,61.40
2022-07-28T10:39:44.169Z,62.30
2022-07-28T10:42:12.494Z,60.30
2022-07-28T10:44:39.514Z,58.90
2022-07-28T10:47:18.152Z,59.10
2022-07-28T10:49:48.988Z,60.10
2022-07-28T10:52:45.909Z,58.00
2022-07-28T10:55:44.449Z,57.40
2022-07-28T10:58:25.213Z,59.40
2022-07-28T11:00:57.061Z,57.90
2022-07-28T11:03:42.690Z,57.50
2022-07-28T11:06:36.736Z,57.40
2022-07-28T11:09:15.591Z,57.60
2022-07-28T11:11:47.244Z,55.90
2022-07-28T11:14:22.828Z,56.70
2022-07-28T11:17:11.642Z,57.60
2022-07-28T11:20:06.898Z,55.40
2022-07-28T11:22:33.280Z,55.70
2022-07-28T11:25:20.966Z,57.60
2022-07-28T11:27:52.211Z,56.80
2022-07-28T11:30:19.530Z,58.10
2022-07-28T11:32:55.301Z,57.50
2022-07-28T11:35:23.808Z,57.90
2022-07-28T11:38:02.183Z,57.90
2022-07-28T11:40:38.936Z,56.90
2022-07-28T11:43:35.409Z,58.70
2022-07-28T11:46:07.067Z,55.30
2022-07-28T11:48:41.866Z,55.20
2022-07-28T11:51:10.138Z,55.70
2022-07-28T11:53:40.616Z,55.20
2022-07-28T11:56:12.757Z,54.70
2022-07-28T11:58:40.404Z,56.30
2022-07-28T12:01:18.085Z,56.50
2022-07-28T12:03:55.643Z,54.30
2022-07-28T12:06:28.781Z,55.80
2022-07-28T12:09:00.341Z,53.80
2022-07-28T12:11:37.403Z,54.50
2022-07-28T12:14:06.614Z,54.50
2022-07-28T12:16:35.785Z,54.00
2022-07-28T12:19:03.760Z,53.20
2022-07-28T12:21:37.859Z,54.80
2022-07-28T12:24:18.816Z,51.90
2022-07-28T12:26:49.517Z,51.30
2022-07-28T12:29:17.849Z,53.30
2022-07-28T12:31:55.498Z,50.80
2022-07-28T12:34:24.335Z,55.00
2022-07-28T12:36:57.692Z,54.20
2022-07-28T12:39:25.662Z,53.90
2022-07-28T12:42:10.129Z,52.50
2022-07-28T12:44:38.878Z,52.90
2022-07-28T12:47:10.680Z,53.20
2022-07-28T12:49:38.512Z,52.60
2022-07-28T12:52:22.885Z,53.30
2022-07-28T12:54:54.662Z,52.30
2022-07-28T12:57:50.840Z,53.40
2022-07-28T13:00:20.335Z,53.70
2022-07-28T13:02:48.452Z,52.70
2022-07-28T13:05:56.700Z,51.00
2022-07-28T13:08:27.537Z,52.30
2022-07-28T13:10:58.671Z,53.00
2022-07-28T13:13:26.644Z,52.00
2022-07-28T13:16:15.740Z,52.20
2022-07-28T13:18:53.286Z,52.80
2022-07-28T13:21:58.965Z,52.20
2022-07-28T13:24:28.708Z,51.70
2022-07-28T13:26:56.087Z,52.40
2022-07-28T13:29:23.685Z,53.70
2022-07-28T13:31:50.704Z,52.50
2022-07-28T13:34:17.786Z,52.80
2022-07-28T13:36:44.661Z,54.30
2022-07-28T13:39:11.457Z,54.10
2022-07-28T13:41:56.445Z,52.50
2022-07-28T13:44:25.045Z,50.90
2022-07-28T13:46:51.716Z,51.60
2022-07-28T13:49:21.534Z,52.40
2022-07-28T13:51:48.868Z,50.80
2022-07-28T13:54:18.702Z,54.30
2022-07-28T13:56:46.260Z,54.10
2022-07-28T13:59:13.694Z,53.50
2022-07-28T14:01:42.474Z,51.90
2022-07-28T14:04:15.039Z,52.80
2022-07-28T14:06:47.173Z,53.00
2022-07-28T14:09:18.009Z,53.60
2022-07-28T14:11:49.278Z,53.90
2022-07-28T14:14:20.249Z,54.50
2022-07-28T14:16:49.263Z,55.10
2022-07-28T14:19:23.025Z,55.80
2022-07-28T14:21:50.363Z,56.70
2022-07-28T14:24:17.690Z,56.20
2022-07-28T14:26:44.514Z,56.70
2022-07-28T14:29:11.628Z,57.30
2022-07-28T14:31:38.696Z,57.30
2022-07-28T14:34:05.409Z,57.40
2022-07-28T14:36:32.013Z,57.50
2022-07-28T14:38:58.685Z,58.10
2022-07-28T14:41:25.774Z,57.50
2022-07-28T14:43:53.129Z,57.80
2022-07-28T14:46:21.829Z,57.90
2022-07-28T14:48:49.134Z,58.10
2022-07-28T14:51:15.993Z,58.20
2022-07-28T14:53:46.422Z,58.50
2022-07-28T14:56:16.834Z,58.90
2022-07-28T14:58:43.578Z,58.90
2022-07-28T15:03:37.771Z,58.50
2022-07-28T15:06:10.524Z,58.40
2022-07-28T15:08:37.240Z,58.80
2022-07-28T15:11:03.899Z,59.20
2022-07-28T15:13:30.457Z,59.10
2022-07-28T15:15:59.687Z,59.10
2022-07-28T15:18:26.398Z,59.00
2022-07-28T15:20:55.261Z,59.00
2022-07-28T15:23:22.840Z,58.90
2022-07-28T15:25:50.052Z,59.20
2022-07-28T15:28:17.890Z,59.30
2022-07-28T15:33:20.641Z,59.20
2022-07-28T15:35:57.999Z,59.40
2022-07-28T15:38:27.627Z,58.80
2022-07-28T15:40:54.338Z,58.80
2022-07-28T15:43:23.882Z,59.00
2022-07-28T15:48:18.069Z,59.30
2022-07-28T15:50:48.819Z,59.40
2022-07-28T15:53:16.909Z,59.30
2022-07-28T15:55:48.999Z,59.20
2022-07-28T15:58:17.868Z,59.50
2022-07-28T16:03:12.951Z,60.00
2022-07-28T16:05:39.742Z,59.50
2022-07-28T16:08:06.660Z,59.60
2022-07-28T16:10:33.333Z,59.50
2022-07-28T16:13:40.295Z,59.60
2022-07-28T16:16:08.186Z,60.30
2022-07-28T16:18:36.353Z,60.00
2022-07-28T16:21:03.171Z,60.50
2022-07-28T16:25:57.013Z,59.90
2022-07-28T16:30:53.932Z,60.20
2022-07-28T16:38:14.695Z,60.40
2022-07-28T16:40:41.329Z,60.50
2022-07-28T16:43:07.991Z,61.10
2022-07-28T16:45:35.303Z,60.70
2022-07-28T16:48:03.039Z,60.80
2022-07-28T16:50:31.557Z,60.50
2022-07-28T16:52:59.044Z,61.00
2022-07-28T16:55:26.151Z,60.70
2022-07-28T16:57:53.212Z,60.80
2022-07-28T17:00:20.974Z,60.80
2022-07-28T17:02:47.618Z,61.00
2022-07-28T17:05:14.259Z,60.50
2022-07-28T17:07:45.841Z,60.70
2022-07-28T17:10:15.086Z,61.00
2022-07-28T17:12:50.158Z,61.50
2022-07-28T17:15:21.913Z,61.10
2022-07-28T17:17:50.349Z,61.70
2022-07-28T17:20:16.980Z,60.20
2022-07-28T17:22:44.597Z,60.90
2022-07-28T17:35:31.830Z,60.90
2022-07-28T17:38:05.144Z,61.20
2022-07-28T17:40:32.165Z,60.50
2022-07-28T17:45:25.893Z,59.50
2022-07-28T17:47:52.513Z,58.90
2022-07-28T17:50:19.655Z,59.70
2022-07-28T17:52:46.512Z,58.60
2022-07-28T17:58:24.180Z,58.30
2022-07-28T18:01:10.743Z,60.90
2022-07-28T18:03:56.751Z,60.40
2022-07-28T18:06:35.796Z,59.30
2022-07-28T18:09:06.443Z,60.80
2022-07-28T18:11:35.184Z,60.80
2022-07-28T18:14:05.330Z,59.80
2022-07-28T18:16:34.277Z,61.50
2022-07-28T18:19:02.006Z,61.20
2022-07-28T18:21:28.674Z,62.20
2022-07-28T18:23:55.282Z,60.20
2022-07-28T18:26:22.216Z,60.70
2022-07-28T18:28:49.009Z,61.80
2022-07-28T18:31:15.720Z,61.40
2022-07-28T18:33:42.416Z,62.40
2022-07-28T18:36:09.222Z,61.30
2022-07-28T18:38:35.839Z,61.40
2022-07-28T18:41:02.470Z,62.70
2022-07-28T18:43:29.066Z,61.50
2022-07-28T18:45:55.719Z,62.30
2022-07-28T18:48:25.223Z,61.90
2022-07-28T18:50:52.071Z,62.30
2022-07-28T18:53:18.690Z,61.50
2022-07-28T18:55:45.340Z,61.80
2022-07-28T18:58:12.148Z,62.50
2022-07-28T19:00:38.794Z,62.90
2022-07-28T19:03:05.883Z,62.60
2022-07-28T19:05:36.687Z,62.40
2022-07-28T19:08:04.981Z,62.70
2022-07-28T19:10:32.284Z,61.80
2022-07-28T19:12:59.007Z,61.80
2022-07-28T19:15:25.851Z,62.20
2022-07-28T19:18:11.296Z,62.50
2022-07-28T19:20:42.278Z,62.70
2022-07-28T19:23:08.914Z,62.30
2022-07-28T19:25:36.153Z,62.60
2022-07-28T19:28:03.546Z,63.00
2022-07-28T19:30:31.846Z,63.40
2022-07-28T19:32:58.582Z,64.40
2022-07-28T19:35:25.221Z,63.50
2022-07-28T19:37:51.959Z,63.60
2022-07-28T19:40:18.761Z,63.60
2022-07-28T19:42:46.955Z,62.10
2022-07-28T19:45:13.770Z,63.60
2022-07-28T19:47:40.339Z,63.70
2022-07-28T19:50:07.108Z,62.80
2022-07-28T19:52:34.492Z,63.10
2022-07-28T19:55:01.189Z,63.80
2022-07-28T19:57:30.850Z,63.50
2022-07-28T19:59:58.740Z,62.40
2022-07-28T20:02:25.347Z,62.70
2022-07-28T20:04:51.980Z,63.10
2022-07-28T20:07:18.661Z,64.00
2022-07-28T20:09:45.283Z,64.20
2022-07-28T20:12:11.945Z,63.60
2022-07-28T20:14:38.520Z,62.60
2022-07-28T20:17:05.290Z,64.20
2022-07-28T20:19:32.038Z,63.90
2022-07-28T20:21:58.723Z,63.10
2022-07-28T20:24:25.378Z,62.50
2022-07-28T20:26:52.018Z,62.30
2022-07-28T20:29:18.623Z,63.00
2022-07-28T20:31:45.273Z,63.00
2022-07-28T20:34:12.896Z,64.50
2022-07-28T20:36:39.876Z,63.70
2022-07-28T20:39:27.387Z,63.80
2022-07-28T20:41:53.161Z,64.70
2022-07-28T20:44:29.244Z,63.30
2022-07-28T20:47:01.120Z,63.40
2022-07-28T20:49:28.511Z,64.20
2022-07-28T20:51:56.649Z,63.60
2022-07-28T20:54:24.237Z,63.40
2022-07-28T20:56:50.813Z,64.10
2022-07-28T20:59:17.511Z,64.50
2022-07-28T21:01:44.223Z,63.70
2022-07-28T21:04:11.745Z,63.70
2022-07-28T21:06:38.674Z,64.40
2022-07-28T21:09:05.347Z,64.10
2022-07-28T21:11:35.040Z,64.10
2022-07-28T21:14:02.306Z,63.40
2022-07-28T21:16:28.990Z,64.00
2022-07-28T21:18:55.769Z,64.10
2022-07-28T21:21:22.797Z,64.10
2022-07-28T21:23:49.743Z,64.80
2022-07-28T21:26:16.706Z,64.30
2022-07-28T21:29:01.722Z,64.60
2022-07-28T21:31:28.384Z,65.10
2022-07-28T21:33:55.111Z,64.70
2022-07-28T21:36:21.916Z,64.90
2022-07-28T21:38:48.639Z,64.30
2022-07-28T21:41:15.256Z,64.50
2022-07-28T21:43:41.914Z,64.50
2022-07-28T21:46:08.638Z,64.60
2022-07-28T21:48:35.494Z,65.50
2022-07-28T21:51:02.149Z,65.10
2022-07-28T21:53:28.731Z,63.90
2022-07-28T21:55:56.945Z,64.80
2022-07-28T21:58:23.559Z,65.50
2022-07-28T22:00:50.173Z,64.90
2022-07-28T22:03:16.888Z,65.00
2022-07-28T22:05:43.602Z,65.10
2022-07-28T22:08:10.761Z,64.60
2022-07-28T22:10:37.393Z,65.10
2022-07-28T22:13:04.255Z,64.70
2022-07-28T22:15:30.886Z,64.50
2022-07-28T22:17:57.486Z,64.90
2022-07-28T22:20:24.105Z,64.40
2022-07-28T22:22:50.740Z,64.80
2022-07-28T22:25:17.347Z,66.20
2022-07-28T22:27:43.974Z,64.80
2022-07-28T22:30:10.621Z,65.70
2022-07-28T22:32:37.265Z,64.40
2022-07-28T22:35:04.148Z,66.00
2022-07-28T22:37:30.772Z,64.10
2022-07-28T22:39:57.454Z,64.30
2022-07-28T22:42:24.037Z,65.30
2022-07-28T22:44:50.641Z,65.50
2022-07-28T22:47:17.396Z,63.80
2022-07-28T22:49:43.989Z,64.80
2022-07-28T22:52:10.564Z,64.30
2022-07-28T22:54:38.895Z,64.90
2022-07-28T22:57:06.135Z,65.30
2022-07-28T22:59:35.716Z,64.50
2022-07-28T23:02:06.826Z,64.20
2022-07-28T23:04:33.482Z,65.10
2022-07-28T23:07:00.103Z,64.40
2022-07-28T23:09:26.997Z,64.70
2022-07-28T23:11:55.823Z,65.30
2022-07-28T23:14:22.728Z,64.60
2022-07-28T23:16:49.441Z,64.40
2022-07-28T23:19:16.508Z,65.50
2022-07-28T23:21:43.931Z,66.20
2022-07-28T23:24:10.654Z,65.40
2022-07-28T23:26:37.910Z,64.90
2022-07-28T23:29:04.525Z,65.90
2022-07-28T23:31:31.239Z,65.30
2022-07-28T23:33:57.903Z,66.00
2022-07-28T23:36:26.646Z,66.80
2022-07-28T23:38:58.253Z,65.80
2022-07-28T23:41:25.843Z,65.90
2022-07-28T23:43:52.936Z,66.10
2022-07-28T23:46:19.641Z,66.90
2022-07-28T23:48:46.394Z,66.60
2022-07-28T23:51:14.051Z,65.70
2022-07-28T23:53:43.794Z,66.60
2022-07-28T23:56:10.526Z,65.70
2022-07-28T23:58:37.125Z,66.40
